Governador Jorge Teixeira, Brazil
Current Conditions -  °F | °C
As of 2:00 PM on Monday 20 Oct 2014 (Local Time) from SBPV Reporting Station
Scattered Clouds Scattered Clouds  
Wind Chill: 88°   Ceiling: Unl
Heat Index: 93°   Visibility: 6mi
Dew Point: 70°   Wind: 0mph
Humidity: 55%   Direction: NA
Pressure: 29.83"   Gusts: NA
Location:  10.53°S, 62.64°W
Report Text: SBPV 201800Z 00000KT 9999 SCT023 FEW025TCU SCT100 31/21 Q1010
Loading
Personal Weather Stations






























Interactive Weather Map
Tropical Storm Tracking
New forecast layout! Learn more

10-Day Weather Forecast

Advertisements
Track Severe Weather on mobile